Terminal Aerodrome Forecast
Issued by NWS

Home | Current Version | Previous Version | Text Only | Print | Product List | Glossary Off
Versions: 1 2 3 4 5 6 7 8 9 10 11 12 13 14 15 16 17 18 19 20

000
FTUS43 KABR 250500
TAFPIR
TAF
KPIR 250531Z 2506/2606 32015G22KT 6SM -RA BR OVC015
     FM250900 32015G22KT P6SM OVC015
     FM251700 VRB05KT P6SM OVC025=

USA.gov is the U.S. government's official web portal to all federal, state and local government web resources and services.